Time;durP1;ratioP1;P1;durP2;ratioP2;P2;SDS_P1;SDS_P2;PMS_P1;PMS_P2;Temp;Humidity;BMP_temperature;BMP_pressure;BME280_temperature;BME280_humidity;BME280_pressure;Samples;Min_cycle;Max_cycle;Signal;HPM_P1;HPM_P2
2023/12/05 00:00:25;;;;;;;58.63;39.25;;;3.40;99.90;;;;;;4987954;28;20026;-74
2023/12/05 00:02:57;;;;;;;56.75;38.13;;;3.40;99.90;;;;;;4990778;28;20031;-76
2023/12/05 00:05:23;;;;;;;;;;;3.40;99.90;;;;;;4991973;28;20410;-75
2023/12/05 00:07:51;;;;;;;59.05;40.17;;;3.40;99.90;;;;;;4989881;28;19920;-74
2023/12/05 00:10:17;;;;;;;58.10;39.38;;;3.40;99.90;;;;;;4988523;28;20165;-76
2023/12/05 00:12:42;;;;;;;58.78;39.97;;;3.30;99.90;;;;;;4991509;28;20470;-74
2023/12/05 00:15:12;;;;;;;57.03;38.90;;;3.30;99.90;;;;;;4991935;28;20536;-76
2023/12/05 00:17:37;;;;;;;56.88;39.63;;;3.30;99.90;;;;;;4990610;28;20038;-75
2023/12/05 00:20:03;;;;;;;59.83;39.80;;;3.30;99.90;;;;;;4991300;28;20389;-74
2023/12/05 00:22:29;;;;;;;59.58;38.90;;;3.30;99.90;;;;;;4990817;28;20049;-75
2023/12/05 00:24:55;;;;;;;56.75;39.50;;;3.30;99.90;;;;;;4993491;28;20026;-75
2023/12/05 00:27:24;;;;;;;58.20;39.67;;;3.30;99.90;;;;;;4989025;28;20047;-75
2023/12/05 00:29:50;;;;;;;56.95;39.13;;;3.30;99.90;;;;;;4989587;28;20097;-74
2023/12/05 00:32:16;;;;;;;58.28;39.58;;;3.30;99.90;;;;;;4995437;28;20117;-74
2023/12/05 00:34:47;;;;;;;56.65;38.33;;;3.30;99.90;;;;;;4995580;28;20030;-74
2023/12/05 00:37:15;;;;;;;58.13;38.67;;;3.30;99.90;;;;;;4990204;28;20042;-74
2023/12/05 00:39:40;;;;;;;59.28;39.15;;;3.30;99.90;;;;;;4992813;28;20035;-74
2023/12/05 00:42:06;;;;;;;58.00;38.88;;;3.30;99.90;;;;;;4993500;28;20152;-75
2023/12/05 00:44:31;;;;;;;58.25;39.03;;;3.30;99.90;;;;;;4992500;28;20058;-75
2023/12/05 00:47:00;;;;;;;59.90;38.95;;;3.30;99.90;;;;;;4995046;28;20450;-74
2023/12/05 00:49:26;;;;;;;57.78;38.83;;;3.20;99.90;;;;;;4995476;28;20378;-74
2023/12/05 00:51:51;;;;;;;60.50;39.40;;;3.30;99.90;;;;;;4996204;28;20022;-74
2023/12/05 00:54:17;;;;;;;61.10;39.03;;;3.30;99.90;;;;;;4996431;28;20045;-74
2023/12/05 00:56:42;;;;;;;58.53;39.67;;;3.30;99.90;;;;;;4988510;28;20082;-75
2023/12/05 00:59:08;;;;;;;56.90;39.13;;;3.30;99.90;;;;;;4993493;28;20097;-74
2023/12/05 01:01:33;;;;;;;55.90;38.47;;;3.30;99.90;;;;;;4994685;28;20029;-75
2023/12/05 01:03:59;;;;;;;57.63;38.30;;;3.30;99.90;;;;;;4994763;28;20034;-74
2023/12/05 01:06:24;;;;;;;56.30;38.80;;;3.30;99.90;;;;;;4995604;28;20030;-74
2023/12/05 01:08:51;;;;;;;59.20;39.47;;;3.20;99.90;;;;;;4996416;28;20037;-74
2023/12/05 01:11:17;;;;;;;57.42;38.38;;;3.20;99.90;;;;;;4983538;28;20478;-74
2023/12/05 01:13:43;;;;;;;56.50;36.70;;;3.30;99.90;;;;;;4994953;28;20050;-74
2023/12/05 01:16:09;;;;;;;58.47;38.08;;;3.30;99.90;;;;;;4995170;28;20030;-75
2023/12/05 01:18:37;;;;;;;58.70;37.95;;;3.30;99.90;;;;;;4996113;28;20134;-75
2023/12/05 01:21:03;;;;;;;53.85;37.20;;;3.30;99.90;;;;;;4996069;28;20125;-75
2023/12/05 01:23:28;;;;;;;56.35;38.65;;;3.30;99.90;;;;;;4993101;28;20565;-74
2023/12/05 01:25:54;;;;;;;54.97;38.00;;;3.30;99.90;;;;;;4994945;28;20040;-75
2023/12/05 01:28:19;;;;;;;53.38;37.67;;;3.30;99.90;;;;;;4995622;28;20022;-75
2023/12/05 01:30:45;;;;;;;53.35;36.22;;;3.30;99.90;;;;;;4993025;28;20033;-75
2023/12/05 01:33:10;;;;;;;55.95;38.35;;;3.30;99.90;;;;;;4991223;28;20042;-75
2023/12/05 01:35:36;;;;;;;49.88;33.90;;;3.30;99.90;;;;;;4995109;28;20026;-75
2023/12/05 01:38:01;;;;;;;47.67;33.35;;;3.30;99.90;;;;;;4994292;28;20049;-75
2023/12/05 01:40:27;;;;;;;52.40;35.80;;;3.30;99.90;;;;;;4990164;28;20053;-75
2023/12/05 01:42:53;;;;;;;48.33;34.67;;;3.30;99.90;;;;;;4994029;28;20447;-73
2023/12/05 01:45:18;;;;;;;45.08;32.80;;;3.30;99.90;;;;;;4994913;28;20031;-75
2023/12/05 01:47:44;;;;;;;45.60;32.13;;;3.30;99.90;;;;;;4995628;28;20034;-74
2023/12/05 01:50:15;;;;;;;46.17;31.10;;;3.30;99.90;;;;;;4995153;28;20030;-74
2023/12/05 01:52:47;;;;;;;42.30;29.70;;;3.30;99.90;;;;;;4995024;28;20078;-74
2023/12/05 01:55:15;;;;;;;44.72;30.30;;;3.30;99.90;;;;;;4994693;28;20113;-76
2023/12/05 01:57:41;;;;;;;41.92;30.30;;;3.30;99.90;;;;;;4994398;28;20049;-74
2023/12/05 02:00:08;;;;;;;42.38;30.90;;;3.30;99.90;;;;;;4994941;28;20145;-74
2023/12/05 02:02:35;;;;;;;46.22;32.30;;;3.20;99.90;;;;;;4993539;28;20379;-74
2023/12/05 02:05:02;;;;;;;43.35;30.13;;;3.30;99.90;;;;;;4994711;28;20029;-74
2023/12/05 02:07:30;;;;;;;43.53;30.48;;;3.30;99.90;;;;;;4987083;28;20042;-74
2023/12/05 02:09:55;;;;;;;42.55;30.20;;;3.30;99.90;;;;;;4995131;28;20033;-73
2023/12/05 02:12:21;;;;;;;42.75;30.90;;;3.30;99.90;;;;;;4990146;28;20026;-74
2023/12/05 02:14:47;;;;;;;45.15;31.38;;;3.30;99.90;;;;;;4989877;28;20062;-74
2023/12/05 02:17:19;;;;;;;44.40;30.20;;;3.30;99.90;;;;;;4995026;28;20030;-73
2023/12/05 02:19:47;;;;;;;;;;;3.30;99.90;;;;;;4995268;28;20049;-75
2023/12/05 02:22:52;;;;;;;43.45;31.20;;;3.30;99.90;;;;;;4992434;28;19916;-74
2023/12/05 02:26:02;;;;;;;43.53;30.23;;;3.30;99.90;;;;;;4992399;28;20026;-74
2023/12/05 02:28:27;;;;;;;45.03;31.08;;;3.30;99.90;;;;;;4993476;28;20117;-74
2023/12/05 02:30:53;;;;;;;44.22;31.05;;;3.30;99.90;;;;;;4993070;28;20113;-74
2023/12/05 02:33:19;;;;;;;45.28;32.35;;;3.30;99.90;;;;;;4993084;28;20081;-74
2023/12/05 02:35:46;;;;;;;47.05;31.70;;;3.30;99.90;;;;;;4994747;28;20026;-75
2023/12/05 02:38:24;;;;;;;46.58;33.00;;;3.40;99.90;;;;;;4994651;28;20034;-74
2023/12/05 02:41:07;;;;;;;46.50;31.02;;;3.40;99.90;;;;;;4994491;28;20065;-75
2023/12/05 02:43:52;;;;;;;47.53;33.47;;;3.40;99.90;;;;;;4980743;28;20467;-73
2023/12/05 02:46:19;;;;;;;48.70;33.58;;;3.30;99.90;;;;;;4990825;28;20088;-74
2023/12/05 02:48:45;;;;;;;48.67;32.72;;;3.30;99.90;;;;;;4993080;28;20117;-74
2023/12/05 02:51:11;;;;;;;47.30;33.85;;;3.30;99.90;;;;;;4994170;28;20116;-74
2023/12/05 02:53:37;;;;;;;48.65;32.83;;;3.30;99.90;;;;;;4992890;28;20462;-74
2023/12/05 02:56:03;;;;;;;49.22;34.00;;;3.30;99.90;;;;;;4994034;28;20065;-74
2023/12/05 02:58:29;;;;;;;51.15;34.28;;;3.30;99.90;;;;;;4994192;28;20498;-74
2023/12/05 03:00:55;;;;;;;47.45;32.92;;;3.30;99.90;;;;;;4993990;28;20030;-74
2023/12/05 03:03:20;;;;;;;51.58;35.67;;;3.30;99.90;;;;;;4993878;28;20489;-75
2023/12/05 03:05:46;;;;;;;51.28;35.55;;;3.30;99.90;;;;;;4992667;28;20080;-74
2023/12/05 03:08:11;;;;;;;50.72;35.10;;;3.30;99.90;;;;;;4993988;28;20117;-74
2023/12/05 03:10:37;;;;;;;51.22;34.03;;;3.30;99.90;;;;;;4992597;28;20136;-74
2023/12/05 03:13:02;;;;;;;49.88;34.40;;;3.30;99.90;;;;;;4994411;28;20046;-74
2023/12/05 03:15:28;;;;;;;51.47;33.65;;;3.30;99.90;;;;;;4994194;28;20030;-74
2023/12/05 03:17:53;;;;;;;51.42;35.25;;;3.30;99.90;;;;;;4993440;28;20042;-74
2023/12/05 03:20:19;;;;;;;49.50;34.22;;;3.30;99.90;;;;;;4993304;28;20036;-73
2023/12/05 03:22:45;;;;;;;51.38;33.90;;;3.30;99.90;;;;;;4994225;28;20046;-73
2023/12/05 03:25:11;;;;;;;51.83;35.13;;;3.30;99.90;;;;;;4990622;28;20073;-73
2023/12/05 03:27:36;;;;;;;51.25;35.00;;;3.30;99.90;;;;;;4993757;28;20046;-74
2023/12/05 03:30:03;;;;;;;51.47;34.72;;;3.20;99.90;;;;;;4993779;28;20033;-73
2023/12/05 03:32:28;;;;;;;51.20;36.65;;;3.30;99.90;;;;;;4993760;28;20053;-73
2023/12/05 03:34:54;;;;;;;53.85;35.92;;;3.30;99.90;;;;;;4992906;28;20054;-73
2023/12/05 03:37:19;;;;;;;55.13;36.95;;;3.30;99.90;;;;;;4993671;28;20026;-73
2023/12/05 03:39:45;;;;;;;53.55;36.65;;;3.30;99.90;;;;;;4993839;28;20046;-74
2023/12/05 03:42:10;;;;;;;53.05;35.75;;;3.30;99.90;;;;;;4992349;28;20085;-73
2023/12/05 03:44:36;;;;;;;56.78;37.80;;;3.30;99.90;;;;;;4993600;28;20038;-74
2023/12/05 03:47:02;;;;;;;52.35;36.15;;;3.30;99.90;;;;;;4993653;28;20038;-74
2023/12/05 03:49:27;;;;;;;53.65;36.45;;;3.40;99.90;;;;;;4990544;28;20026;-74
2023/12/05 03:51:53;;;;;;;57.25;36.95;;;3.40;99.90;;;;;;4992380;28;20018;-74
2023/12/05 03:54:18;;;;;;;54.80;36.33;;;3.30;99.90;;;;;;4993381;28;20485;-74
2023/12/05 03:56:44;;;;;;;54.15;36.50;;;3.30;99.90;;;;;;4993305;28;20060;-73
2023/12/05 03:59:09;;;;;;;51.72;35.25;;;3.30;99.90;;;;;;4993420;28;20054;-74
2023/12/05 04:01:35;;;;;;;54.17;35.40;;;3.40;99.90;;;;;;4993430;28;20022;-74
2023/12/05 04:04:00;;;;;;;55.63;36.28;;;3.40;99.90;;;;;;4991794;28;20026;-74
2023/12/05 04:06:26;;;;;;;54.45;35.95;;;3.40;99.90;;;;;;4991509;28;20060;-74
2023/12/05 04:08:52;;;;;;;53.42;35.33;;;3.40;99.90;;;;;;4993217;28;20030;-74
2023/12/05 04:11:17;;;;;;;102.43;38.60;;;3.40;99.90;;;;;;4993412;28;20026;-75
2023/12/05 04:13:43;;;;;;;50.78;34.70;;;3.40;99.90;;;;;;4991487;28;20455;-73
2023/12/05 04:16:09;;;;;;;100.88;40.25;;;3.50;99.90;;;;;;4990310;28;20042;-74
2023/12/05 04:18:35;;;;;;;171.50;45.08;;;3.50;99.90;;;;;;4993295;28;20038;-74
2023/12/05 04:21:01;;;;;;;105.45;39.10;;;3.40;99.90;;;;;;4992968;28;20037;-74
2023/12/05 04:23:26;;;;;;;54.90;34.63;;;3.50;99.90;;;;;;4991154;28;20034;-74
2023/12/05 04:25:52;;;;;;;75.07;36.72;;;3.50;99.90;;;;;;4992990;28;20061;-74
2023/12/05 04:28:17;;;;;;;64.35;34.70;;;3.50;99.90;;;;;;4992274;28;20036;-74
2023/12/05 04:30:43;;;;;;;52.70;33.53;;;3.50;99.90;;;;;;4993259;28;20118;-74
2023/12/05 04:33:08;;;;;;;146.15;42.33;;;3.50;99.90;;;;;;4991907;28;20041;-74
2023/12/05 04:35:35;;;;;;;72.63;35.67;;;3.50;99.90;;;;;;4990790;28;20030;-74
2023/12/05 04:38:00;;;;;;;82.40;36.65;;;3.50;99.90;;;;;;4990950;28;20034;-74
2023/12/05 04:40:26;;;;;;;52.60;32.10;;;3.50;99.90;;;;;;4992801;28;20368;-74
2023/12/05 04:42:51;;;;;;;90.93;36.95;;;3.50;99.90;;;;;;4991240;28;20077;-75
2023/12/05 04:45:17;;;;;;;58.55;33.17;;;3.50;99.90;;;;;;4992193;28;20034;-74
2023/12/05 04:47:43;;;;;;;61.65;34.88;;;3.60;99.90;;;;;;4993202;28;20022;-74
2023/12/05 04:50:09;;;;;;;77.32;34.92;;;3.60;99.90;;;;;;4992508;28;20026;-74
2023/12/05 04:52:35;;;;;;;52.03;33.22;;;3.60;99.90;;;;;;4992276;28;20022;-74
2023/12/05 04:55:00;;;;;;;93.53;46.78;;;3.60;99.90;;;;;;4991308;28;20039;-74
2023/12/05 04:57:27;;;;;;;49.97;32.55;;;3.60;99.90;;;;;;4991028;28;20086;-74
2023/12/05 04:59:52;;;;;;;50.42;32.10;;;3.60;99.90;;;;;;4992721;28;20105;-73
2023/12/05 05:02:18;;;;;;;59.15;33.05;;;3.60;99.90;;;;;;4992687;28;20165;-73
2023/12/05 05:04:43;;;;;;;72.22;35.30;;;3.60;99.90;;;;;;4991361;28;20081;-73
2023/12/05 05:07:09;;;;;;;122.60;38.55;;;3.60;99.90;;;;;;4992046;28;20099;-74
2023/12/05 05:09:36;;;;;;;48.35;32.10;;;3.60;99.90;;;;;;4992321;28;20406;-73
2023/12/05 05:12:03;;;;;;;105.78;36.90;;;3.60;99.90;;;;;;4991919;28;20019;-74
2023/12/05 05:14:29;;;;;;;69.80;33.70;;;3.60;99.90;;;;;;4991380;28;20022;-73
2023/12/05 05:16:54;;;;;;;55.17;32.42;;;3.60;99.90;;;;;;4992933;28;20073;-74
2023/12/05 05:19:20;;;;;;;58.67;34.72;;;3.60;99.90;;;;;;4996012;28;20038;-74
2023/12/05 05:21:45;;;;;;;96.45;37.95;;;3.60;99.90;;;;;;4996108;28;20057;-74
2023/12/05 05:24:11;;;;;;;63.45;35.78;;;3.60;99.90;;;;;;4994548;28;20062;-73
2023/12/05 05:26:36;;;;;;;149.30;44.90;;;3.60;99.90;;;;;;4995804;28;20030;-74
2023/12/05 05:29:02;;;;;;;52.45;35.92;;;3.60;99.90;;;;;;4995411;28;20542;-75
2023/12/05 05:31:27;;;;;;;52.55;35.38;;;3.60;99.90;;;;;;4994412;28;20026;-75
2023/12/05 05:33:53;;;;;;;69.30;37.20;;;3.60;99.90;;;;;;4995885;28;20113;-74
2023/12/05 05:36:18;;;;;;;137.25;44.15;;;3.60;99.90;;;;;;4995661;28;20093;-74
2023/12/05 05:38:44;;;;;;;53.97;37.03;;;3.60;99.90;;;;;;4995302;28;20038;-74
2023/12/05 05:41:10;;;;;;;51.20;36.17;;;3.50;99.90;;;;;;4993304;28;20033;-74
2023/12/05 05:43:36;;;;;;;70.07;38.30;;;3.50;99.90;;;;;;4993354;28;20030;-74
2023/12/05 05:46:02;;;;;;;74.40;38.20;;;3.50;99.90;;;;;;4995963;28;20100;-74
2023/12/05 05:48:27;;;;;;;55.10;37.28;;;3.60;99.90;;;;;;4995780;28;20030;-75
2023/12/05 05:50:53;;;;;;;139.55;45.03;;;3.50;99.90;;;;;;4994071;28;20533;-75
2023/12/05 05:53:19;;;;;;;104.88;40.92;;;3.50;99.90;;;;;;4995283;28;20030;-75
2023/12/05 05:55:44;;;;;;;54.97;37.00;;;3.50;99.90;;;;;;4994699;28;20374;-75
2023/12/05 05:58:13;;;;;;;54.30;35.97;;;3.50;99.90;;;;;;4994114;28;20532;-75
2023/12/05 06:00:38;;;;;;;55.05;35.63;;;3.50;99.90;;;;;;4991884;28;20088;-75
2023/12/05 06:03:04;;;;;;;52.22;34.85;;;3.50;99.90;;;;;;4994835;28;20113;-74
2023/12/05 06:05:30;;;;;;;105.25;39.63;;;3.50;99.90;;;;;;4994920;28;20031;-74
2023/12/05 06:07:56;;;;;;;54.63;36.90;;;3.50;99.90;;;;;;4993757;28;20030;-74
2023/12/05 06:10:21;;;;;;;64.07;37.72;;;3.50;99.90;;;;;;4991879;28;20038;-74
2023/12/05 06:12:47;;;;;;;50.13;35.08;;;3.50;99.90;;;;;;4992137;28;20109;-73
2023/12/05 06:15:13;;;;;;;104.10;40.30;;;3.50;99.90;;;;;;4994828;28;20402;-74
2023/12/05 06:17:38;;;;;;;54.80;36.63;;;3.50;99.90;;;;;;4994758;28;20022;-74
2023/12/05 06:20:05;;;;;;;52.88;36.03;;;3.50;99.90;;;;;;4994842;28;20160;-74
2023/12/05 06:22:31;;;;;;;52.28;34.00;;;3.50;99.90;;;;;;4994444;28;20034;-74
2023/12/05 06:24:57;;;;;;;50.42;32.22;;;3.50;99.90;;;;;;4993314;28;20033;-74
2023/12/05 06:27:23;;;;;;;52.50;34.80;;;3.40;99.90;;;;;;4994637;28;20026;-74
2023/12/05 06:29:51;;;;;;;49.33;33.65;;;3.40;99.90;;;;;;4992857;28;20105;-74
2023/12/05 06:32:16;;;;;;;52.00;34.25;;;3.40;99.90;;;;;;4993821;28;20058;-73
2023/12/05 06:34:42;;;;;;;59.40;35.60;;;3.30;99.90;;;;;;4993754;28;20068;-74
2023/12/05 06:37:08;;;;;;;50.30;34.22;;;3.30;99.90;;;;;;4993218;28;20026;-73
2023/12/05 06:39:34;;;;;;;57.40;34.80;;;3.30;99.90;;;;;;4994082;28;20042;-74
2023/12/05 06:42:01;;;;;;;50.92;34.58;;;3.30;99.90;;;;;;4992273;28;20038;-74
2023/12/05 06:44:26;;;;;;;58.05;35.47;;;3.30;99.90;;;;;;4991741;28;20026;-74
2023/12/05 06:46:52;;;;;;;53.70;34.63;;;3.30;99.90;;;;;;4994192;28;20033;-74
2023/12/05 06:49:17;;;;;;;65.82;37.20;;;3.30;99.90;;;;;;4993597;28;20022;-74
2023/12/05 06:51:43;;;;;;;114.70;42.92;;;3.30;99.90;;;;;;4994070;28;20078;-74
2023/12/05 06:54:08;;;;;;;58.97;37.92;;;3.30;99.90;;;;;;4992055;28;20494;-74
2023/12/05 06:56:34;;;;;;;54.80;35.80;;;3.30;99.90;;;;;;4993234;28;20402;-73
2023/12/05 06:59:01;;;;;;;82.28;40.25;;;3.30;99.90;;;;;;4988474;28;20045;-73
2023/12/05 07:01:27;;;;;;;58.80;37.47;;;3.30;99.90;;;;;;4993620;28;20382;-74
2023/12/05 07:03:52;;;;;;;55.88;36.10;;;3.30;99.90;;;;;;4993570;28;20386;-74
2023/12/05 07:06:18;;;;;;;54.92;35.88;;;3.30;99.90;;;;;;4993924;28;20030;-74
2023/12/05 07:08:44;;;;;;;56.75;35.42;;;3.30;99.90;;;;;;4993631;28;20030;-74
2023/12/05 07:11:09;;;;;;;52.95;34.88;;;3.20;99.90;;;;;;4993938;28;20026;-74
2023/12/05 07:13:35;;;;;;;58.03;35.88;;;3.30;99.90;;;;;;4992895;28;20080;-74
2023/12/05 07:16:00;;;;;;;57.60;36.13;;;3.20;99.90;;;;;;4989982;28;20022;-73
2023/12/05 07:18:26;;;;;;;58.20;37.00;;;3.20;99.90;;;;;;4992233;28;20088;-78
2023/12/05 07:20:52;;;;;;;57.22;34.85;;;3.20;99.90;;;;;;4992462;28;20014;-75
2023/12/05 07:23:17;;;;;;;84.68;37.67;;;3.10;99.90;;;;;;4993540;28;20509;-74
2023/12/05 07:25:43;;;;;;;122.72;42.03;;;3.10;99.90;;;;;;4991446;28;20091;-73
2023/12/05 07:28:09;;;;;;;52.95;35.45;;;3.10;99.90;;;;;;4992080;28;20038;-73
2023/12/05 07:30:34;;;;;;;55.47;35.80;;;3.20;99.90;;;;;;4991861;28;20030;-75
2023/12/05 07:33:01;;;;;;;78.28;37.97;;;3.20;99.90;;;;;;4992942;28;20073;-74
2023/12/05 07:35:26;;;;;;;54.58;34.88;;;3.20;99.90;;;;;;4993406;28;20014;-74
2023/12/05 07:37:52;;;;;;;67.35;35.75;;;3.20;99.90;;;;;;4991696;28;20072;-73
2023/12/05 07:40:18;;;;;;;55.45;33.00;;;3.20;99.90;;;;;;4991644;28;20030;-73
2023/12/05 07:42:44;;;;;;;53.95;34.35;;;3.20;99.90;;;;;;4993106;28;20081;-75
2023/12/05 07:45:10;;;;;;;54.25;34.80;;;3.20;99.90;;;;;;4988668;28;20042;-72
2023/12/05 07:47:35;;;;;;;49.95;32.22;;;3.20;99.90;;;;;;4993103;28;20030;-72
2023/12/05 07:50:01;;;;;;;54.40;33.38;;;3.20;99.90;;;;;;4993061;28;20504;-74
2023/12/05 07:52:27;;;;;;;50.22;32.78;;;3.20;99.90;;;;;;4993660;28;20050;-73
2023/12/05 07:54:52;;;;;;;166.30;45.53;;;3.20;99.90;;;;;;4992323;28;20080;-73
2023/12/05 07:57:22;;;;;;;48.88;32.38;;;3.20;99.90;;;;;;4992166;28;20395;-75
2023/12/05 07:59:52;;;;;;;56.22;34.40;;;3.20;99.90;;;;;;4995604;28;20129;-73
2023/12/05 08:02:18;;;;;;;53.03;33.58;;;3.20;99.90;;;;;;4992575;28;20030;-72
2023/12/05 08:04:43;;;;;;;51.10;32.95;;;3.20;99.90;;;;;;4993010;28;20378;-73
2023/12/05 08:07:09;;;;;;;66.93;35.83;;;3.20;99.90;;;;;;4991452;28;20035;-74
2023/12/05 08:09:34;;;;;;;55.80;33.58;;;3.20;99.90;;;;;;4993174;28;20425;-73
2023/12/05 08:12:00;;;;;;;52.95;34.25;;;3.20;99.90;;;;;;4993214;28;20474;-74
2023/12/05 08:14:26;;;;;;;49.17;32.90;;;3.20;99.90;;;;;;4992928;28;20037;-74
2023/12/05 08:16:51;;;;;;;51.22;33.45;;;3.20;99.90;;;;;;4991150;28;20024;-74
2023/12/05 08:19:17;;;;;;;46.80;31.67;;;3.20;99.90;;;;;;4990818;28;20383;-73
2023/12/05 08:21:42;;;;;;;50.60;33.47;;;3.20;99.90;;;;;;4990025;28;20034;-73
2023/12/05 08:24:08;;;;;;;50.50;33.25;;;3.20;99.90;;;;;;4991031;28;20118;-74
2023/12/05 08:26:34;;;;;;;52.70;35.17;;;3.20;99.90;;;;;;4990609;28;20114;-74
2023/12/05 08:29:00;;;;;;;49.95;33.78;;;3.20;99.90;;;;;;4990614;28;20034;-74
2023/12/05 08:31:26;;;;;;;55.65;35.58;;;3.20;99.90;;;;;;4991581;28;20041;-74
2023/12/05 08:33:52;;;;;;;55.72;36.75;;;3.10;99.90;;;;;;4991414;28;20023;-73
2023/12/05 08:36:18;;;;;;;53.38;35.28;;;3.10;99.90;;;;;;4991769;28;20360;-74
2023/12/05 08:38:43;;;;;;;58.08;36.95;;;3.10;99.90;;;;;;4992427;28;20039;-73
2023/12/05 08:41:09;;;;;;;56.67;37.13;;;3.10;99.90;;;;;;4990700;28;20044;-73
2023/12/05 08:43:34;;;;;;;59.17;36.63;;;3.10;99.90;;;;;;4990226;28;20097;-73
2023/12/05 08:46:01;;;;;;;63.17;37.92;;;3.00;99.90;;;;;;4992684;28;20030;-73
2023/12/05 08:48:26;;;;;;;64.47;37.22;;;3.00;99.90;;;;;;4993019;28;20033;-73
2023/12/05 08:50:52;;;;;;;60.90;36.92;;;3.00;99.90;;;;;;4993171;28;20102;-73
2023/12/05 08:53:17;;;;;;;61.60;38.03;;;2.90;99.90;;;;;;4997045;28;20034;-72
2023/12/05 08:55:43;;;;;;;61.88;38.40;;;2.90;99.90;;;;;;4993659;28;20363;-73
2023/12/05 08:58:09;;;;;;;68.35;39.65;;;2.90;99.90;;;;;;4995909;28;20034;-73
2023/12/05 09:00:35;;;;;;;78.10;45.05;;;2.90;99.90;;;;;;4995637;28;20084;-74
2023/12/05 09:03:01;;;;;;;72.30;41.33;;;3.00;99.90;;;;;;4995132;28;20030;-73
2023/12/05 09:05:26;;;;;;;79.25;41.30;;;3.00;99.90;;;;;;4996840;28;20125;-73
2023/12/05 09:07:52;;;;;;;74.28;40.60;;;3.00;99.90;;;;;;4995460;28;20474;-73
2023/12/05 09:10:17;;;;;;;72.38;39.72;;;3.00;99.90;;;;;;4996744;28;20429;-73
2023/12/05 09:12:43;;;;;;;69.45;39.55;;;3.00;99.90;;;;;;4994493;28;20030;-73
2023/12/05 09:15:09;;;;;;;69.05;39.60;;;3.00;99.90;;;;;;4996670;28;20030;-73
2023/12/05 09:17:34;;;;;;;69.35;39.00;;;3.00;99.90;;;;;;4994649;28;20035;-73
2023/12/05 09:20:00;;;;;;;74.45;40.70;;;3.00;99.90;;;;;;4995839;28;20100;-74
2023/12/05 09:22:26;;;;;;;76.88;40.60;;;3.00;99.90;;;;;;4996597;28;20157;-73
2023/12/05 09:24:51;;;;;;;77.95;41.47;;;3.10;99.90;;;;;;4996422;28;20365;-73
2023/12/05 09:27:17;;;;;;;70.45;39.22;;;3.10;99.90;;;;;;4994756;28;20053;-74
2023/12/05 09:29:42;;;;;;;68.78;38.22;;;3.10;99.90;;;;;;4996345;28;20042;-73
2023/12/05 09:32:08;;;;;;;74.50;39.88;;;3.10;99.90;;;;;;4996130;28;20373;-73
2023/12/05 09:34:33;;;;;;;70.97;38.75;;;3.10;99.90;;;;;;4994618;28;20034;-74
2023/12/05 09:36:59;;;;;;;70.45;38.65;;;3.20;99.90;;;;;;4987635;28;20018;-74
2023/12/05 09:39:24;;;;;;;70.85;40.95;;;3.20;99.90;;;;;;4996005;28;20121;-73
2023/12/05 09:41:52;;;;;;;62.33;38.20;;;3.20;99.90;;;;;;4996275;28;20039;-73
2023/12/05 09:44:21;;;;;;;63.67;39.60;;;3.20;99.90;;;;;;4994021;28;20023;-73
2023/12/05 09:46:51;;;;;;;68.53;38.92;;;3.20;99.90;;;;;;4996024;28;20034;-73
2023/12/05 09:49:18;;;;;;;62.13;38.15;;;3.20;99.90;;;;;;4995400;28;20062;-73
2023/12/05 09:51:46;;;;;;;61.88;39.55;;;3.20;99.90;;;;;;4996061;28;20030;-73
2023/12/05 09:54:13;;;;;;;66.45;39.55;;;3.20;99.90;;;;;;4993990;28;20066;-73
2023/12/05 09:56:39;;;;;;;61.05;37.28;;;3.10;99.90;;;;;;4995141;28;20039;-73
2023/12/05 09:59:05;;;;;;;61.60;39.40;;;3.20;99.90;;;;;;4995189;28;20085;-74
2023/12/05 10:01:34;;;;;;;66.80;39.70;;;3.20;99.90;;;;;;4991321;28;20708;-73
2023/12/05 10:04:01;;;;;;;61.65;39.28;;;3.20;99.90;;;;;;4994597;28;20355;-73
2023/12/05 10:06:29;;;;;;;63.30;39.42;;;3.20;99.90;;;;;;4991726;28;20034;-74
2023/12/05 10:08:56;;;;;;;67.82;40.00;;;3.30;99.90;;;;;;4990546;28;20042;-75
2023/12/05 10:11:27;;;;;;;58.28;39.03;;;3.30;99.90;;;;;;4990724;28;20042;-75
2023/12/05 10:13:53;;;;;;;62.97;39.88;;;3.30;99.90;;;;;;4993928;28;20027;-74
2023/12/05 10:16:21;;;;;;;55.45;36.45;;;3.30;99.90;;;;;;4994708;28;20453;-76
2023/12/05 10:18:46;;;;;;;56.28;35.50;;;3.30;99.90;;;;;;4986698;28;20126;-75
2023/12/05 10:21:12;;;;;;;52.03;35.25;;;3.30;99.90;;;;;;4992377;28;20113;-74
2023/12/05 10:23:39;;;;;;;53.25;34.25;;;3.30;99.90;;;;;;4993889;28;20057;-74
2023/12/05 10:26:04;;;;;;;55.10;34.25;;;3.20;99.90;;;;;;4993199;28;20018;-73
2023/12/05 10:28:30;;;;;;;49.40;34.28;;;3.30;99.90;;;;;;4994644;28;20037;-74
2023/12/05 10:30:57;;;;;;;52.60;35.33;;;3.30;99.90;;;;;;4994565;28;20391;-74
2023/12/05 10:33:22;;;;;;;50.20;33.72;;;3.30;99.90;;;;;;4994657;28;20029;-74
2023/12/05 10:35:48;;;;;;;51.45;35.20;;;3.30;99.90;;;;;;4993909;28;20026;-75
2023/12/05 10:38:19;;;;;;;50.25;34.47;;;3.30;99.90;;;;;;4994525;28;20088;-75
2023/12/05 10:40:57;;;;;;;47.55;32.35;;;3.40;99.90;;;;;;4992806;28;20030;-74
2023/12/05 10:43:27;;;;;;;49.25;34.75;;;3.50;99.90;;;;;;4994419;28;20105;-74
2023/12/05 10:45:54;;;;;;;47.33;35.33;;;3.50;99.90;;;;;;4994426;28;20037;-74
2023/12/05 10:48:23;;;;;;;47.65;34.22;;;3.50;99.90;;;;;;4994643;28;20033;-74
2023/12/05 10:50:51;;;;;;;46.15;35.13;;;3.50;99.90;;;;;;4994318;28;20083;-74
2023/12/05 10:53:17;;;;;;;46.20;34.72;;;3.50;99.90;;;;;;4994064;28;20026;-74
2023/12/05 10:55:43;;;;;;;46.05;34.88;;;3.40;99.90;;;;;;4994147;28;20026;-75
2023/12/05 10:58:10;;;;;;;46.72;34.83;;;3.40;99.90;;;;;;4994093;28;20562;-73
2023/12/05 11:00:39;;;;;;;46.63;33.47;;;3.40;99.90;;;;;;4993893;28;20030;-75
2023/12/05 11:03:06;;;;;;;46.10;33.42;;;3.40;99.90;;;;;;4989296;28;20034;-74
2023/12/05 11:05:33;;;;;;;48.17;34.28;;;3.40;99.90;;;;;;4990078;28;20117;-75
2023/12/05 11:07:59;;;;;;;44.08;31.90;;;3.50;99.90;;;;;;4993238;28;20030;-72
2023/12/05 11:10:27;;;;;;;46.47;33.28;;;3.50;99.90;;;;;;4994036;28;20375;-74
2023/12/05 11:12:54;;;;;;;44.72;33.38;;;3.50;99.90;;;;;;4993032;28;20030;-73
2023/12/05 11:15:28;;;;;;;46.08;32.50;;;3.50;99.90;;;;;;4993415;28;20108;-75
2023/12/05 11:17:59;;;;;;;46.35;33.33;;;3.60;99.90;;;;;;4990369;28;20018;-73
2023/12/05 11:20:43;;;;;;;44.50;32.95;;;3.60;99.90;;;;;;4993766;28;20022;-74
2023/12/05 11:23:47;;;;;;;46.72;34.85;;;3.60;99.90;;;;;;4993556;28;20053;-77
2023/12/05 11:26:34;;;;;;;45.13;32.67;;;3.60;99.90;;;;;;4984427;28;20045;-75
2023/12/05 11:29:24;;;;;;;44.55;31.05;;;3.70;99.90;;;;;;4990282;28;20077;-75
2023/12/05 11:32:12;;;;;;;43.47;31.67;;;3.70;99.90;;;;;;4988699;28;20533;-75
2023/12/05 11:34:54;;;;;;;40.72;28.95;;;3.70;99.90;;;;;;4993190;28;20043;-75
2023/12/05 11:37:33;;;;;;;41.33;29.83;;;3.70;99.90;;;;;;4993855;28;20470;-75
2023/12/05 11:39:59;;;;;;;42.92;30.25;;;3.60;99.90;;;;;;4979175;28;20046;-74
2023/12/05 11:42:24;;;;;;;45.90;32.65;;;3.60;99.90;;;;;;4993372;28;20473;-76
2023/12/05 11:44:50;;;;;;;45.40;29.60;;;3.60;99.90;;;;;;4992604;28;20038;-74
2023/12/05 11:47:24;;;;;;;43.20;30.20;;;3.60;99.90;;;;;;4989821;28;20030;-76
2023/12/05 11:49:55;;;;;;;45.35;31.52;;;3.60;99.90;;;;;;4977786;28;20045;-76
2023/12/05 11:52:25;;;;;;;52.55;31.90;;;3.50;99.90;;;;;;4982121;28;20072;-75
2023/12/05 11:54:53;;;;;;;40.75;29.58;;;3.50;99.90;;;;;;4993296;28;20050;-75
2023/12/05 11:57:20;;;;;;;42.20;31.67;;;3.60;99.90;;;;;;4993012;28;20052;-76
2023/12/05 11:59:47;;;;;;;41.80;31.02;;;3.50;99.90;;;;;;4992761;28;20038;-74
2023/12/05 12:02:33;;;;;;;42.05;31.70;;;3.50;99.90;;;;;;4992097;28;20059;-76
2023/12/05 12:05:00;;;;;;;42.55;30.67;;;3.50;99.90;;;;;;4986737;28;20042;-73
2023/12/05 12:07:26;;;;;;;43.78;31.98;;;3.40;99.90;;;;;;4993214;28;20127;-75
2023/12/05 12:09:52;;;;;;;43.47;32.08;;;3.40;99.90;;;;;;4992057;28;20101;-73
2023/12/05 12:12:18;;;;;;;45.38;32.97;;;3.30;99.90;;;;;;4993033;28;20022;-75
2023/12/05 12:14:43;;;;;;;45.85;32.20;;;3.40;99.90;;;;;;4993123;28;20112;-75
2023/12/05 12:17:11;;;;;;;42.13;31.30;;;3.50;99.90;;;;;;4993259;28;20034;-74
2023/12/05 12:19:38;;;;;;;45.92;32.47;;;3.50;99.90;;;;;;4991836;28;20096;-76
2023/12/05 12:22:08;;;;;;;49.80;35.05;;;3.40;99.90;;;;;;4991777;28;20056;-74
2023/12/05 12:24:35;;;;;;;44.95;32.10;;;3.50;99.90;;;;;;4989212;28;20034;-74
2023/12/05 12:27:01;;;;;;;43.60;31.30;;;3.40;99.90;;;;;;4993237;28;20041;-74
2023/12/05 12:29:27;;;;;;;42.60;31.40;;;3.40;99.90;;;;;;4997641;28;20390;-74
2023/12/05 12:32:10;;;;;;;49.08;37.22;;;3.40;99.90;;;;;;4996771;28;20041;-74
2023/12/05 12:34:37;;;;;;;42.70;32.75;;;3.40;99.90;;;;;;5001035;28;20528;-74
2023/12/05 12:37:05;;;;;;;41.85;30.90;;;3.50;99.90;;;;;;4998326;28;20497;-74